sensor_id;sensor_type;location;lat;lon;timestamp;pressure;altitude;pressure_sealevel;temperature
14851;BMP180;7517;48.400;11.770;2023-04-08T00:02:16;96414.00;;;8.60
14851;BMP180;7517;48.400;11.770;2023-04-08T00:04:44;96411.00;;;8.60
14851;BMP180;7517;48.400;11.770;2023-04-08T00:07:11;96421.00;;;8.60
14851;BMP180;7517;48.400;11.770;2023-04-08T00:09:38;96422.00;;;8.70
14851;BMP180;7517;48.400;11.770;2023-04-08T00:12:06;96419.00;;;8.70
14851;BMP180;7517;48.400;11.770;2023-04-08T00:14:34;96419.00;;;8.70
14851;BMP180;7517;48.400;11.770;2023-04-08T00:17:05;96417.00;;;8.70
14851;BMP180;7517;48.400;11.770;2023-04-08T00:19:33;96420.00;;;8.70
14851;BMP180;7517;48.400;11.770;2023-04-08T00:22:00;96418.00;;;8.80
14851;BMP180;7517;48.400;11.770;2023-04-08T00:24:29;96425.00;;;8.80
14851;BMP180;7517;48.400;11.770;2023-04-08T00:26:57;96426.00;;;8.80
14851;BMP180;7517;48.400;11.770;2023-04-08T00:29:26;96428.00;;;8.80
14851;BMP180;7517;48.400;11.770;2023-04-08T00:31:53;96418.00;;;8.80
14851;BMP180;7517;48.400;11.770;2023-04-08T00:34:23;96428.00;;;8.80
14851;BMP180;7517;48.400;11.770;2023-04-08T00:36:50;96426.00;;;8.80
14851;BMP180;7517;48.400;11.770;2023-04-08T00:39:17;96425.00;;;8.80
14851;BMP180;7517;48.400;11.770;2023-04-08T00:41:44;96427.00;;;8.90
14851;BMP180;7517;48.400;11.770;2023-04-08T00:44:11;96429.00;;;8.80
14851;BMP180;7517;48.400;11.770;2023-04-08T00:46:39;96429.00;;;8.90
14851;BMP180;7517;48.400;11.770;2023-04-08T00:49:07;96429.00;;;8.90
14851;BMP180;7517;48.400;11.770;2023-04-08T00:51:36;96424.00;;;8.90
14851;BMP180;7517;48.400;11.770;2023-04-08T00:54:03;96429.00;;;8.90
14851;BMP180;7517;48.400;11.770;2023-04-08T00:56:32;96439.00;;;8.90
14851;BMP180;7517;48.400;11.770;2023-04-08T00:59:01;96432.00;;;8.90
14851;BMP180;7517;48.400;11.770;2023-04-08T01:01:35;96434.00;;;8.90
14851;BMP180;7517;48.400;11.770;2023-04-08T01:04:12;96431.00;;;8.90
14851;BMP180;7517;48.400;11.770;2023-04-08T01:06:52;96439.00;;;9.00
14851;BMP180;7517;48.400;11.770;2023-04-08T01:09:31;96440.00;;;9.00
14851;BMP180;7517;48.400;11.770;2023-04-08T01:12:02;96440.00;;;9.00
14851;BMP180;7517;48.400;11.770;2023-04-08T01:14:38;96441.00;;;9.00
14851;BMP180;7517;48.400;11.770;2023-04-08T01:17:09;96439.00;;;9.10
14851;BMP180;7517;48.400;11.770;2023-04-08T01:19:39;96443.00;;;9.10
14851;BMP180;7517;48.400;11.770;2023-04-08T01:22:28;96444.00;;;9.10
14851;BMP180;7517;48.400;11.770;2023-04-08T01:25:05;96452.00;;;9.10
14851;BMP180;7517;48.400;11.770;2023-04-08T01:27:37;96443.00;;;9.20
14851;BMP180;7517;48.400;11.770;2023-04-08T01:30:08;96440.00;;;9.20
14851;BMP180;7517;48.400;11.770;2023-04-08T01:32:38;96445.00;;;9.20
14851;BMP180;7517;48.400;11.770;2023-04-08T01:35:07;96436.00;;;9.20
14851;BMP180;7517;48.400;11.770;2023-04-08T01:37:37;96438.00;;;9.20
14851;BMP180;7517;48.400;11.770;2023-04-08T01:40:09;96436.00;;;9.30
14851;BMP180;7517;48.400;11.770;2023-04-08T01:42:39;96438.00;;;9.30
14851;BMP180;7517;48.400;11.770;2023-04-08T01:45:09;96431.00;;;9.30
14851;BMP180;7517;48.400;11.770;2023-04-08T01:47:38;96433.00;;;9.30
14851;BMP180;7517;48.400;11.770;2023-04-08T01:50:08;96440.00;;;9.40
14851;BMP180;7517;48.400;11.770;2023-04-08T01:52:37;96437.00;;;9.40
14851;BMP180;7517;48.400;11.770;2023-04-08T01:55:07;96439.00;;;9.40
14851;BMP180;7517;48.400;11.770;2023-04-08T01:57:38;96440.00;;;9.50
14851;BMP180;7517;48.400;11.770;2023-04-08T02:00:11;96440.00;;;9.50
14851;BMP180;7517;48.400;11.770;2023-04-08T02:02:43;96443.00;;;9.50
14851;BMP180;7517;48.400;11.770;2023-04-08T02:05:12;96445.00;;;9.50
14851;BMP180;7517;48.400;11.770;2023-04-08T02:07:39;96442.00;;;9.60
14851;BMP180;7517;48.400;11.770;2023-04-08T02:10:07;96440.00;;;9.60
14851;BMP180;7517;48.400;11.770;2023-04-08T02:12:35;96437.00;;;9.60
14851;BMP180;7517;48.400;11.770;2023-04-08T02:15:06;96442.00;;;9.60
14851;BMP180;7517;48.400;11.770;2023-04-08T02:17:43;96443.00;;;9.60
14851;BMP180;7517;48.400;11.770;2023-04-08T02:20:17;96449.00;;;9.60
14851;BMP180;7517;48.400;11.770;2023-04-08T02:22:51;96448.00;;;9.70
14851;BMP180;7517;48.400;11.770;2023-04-08T02:25:23;96446.00;;;9.70
14851;BMP180;7517;48.400;11.770;2023-04-08T02:27:53;96441.00;;;9.70
14851;BMP180;7517;48.400;11.770;2023-04-08T02:30:27;96441.00;;;9.70
14851;BMP180;7517;48.400;11.770;2023-04-08T02:32:56;96453.00;;;9.70
14851;BMP180;7517;48.400;11.770;2023-04-08T02:35:25;96456.00;;;9.80
14851;BMP180;7517;48.400;11.770;2023-04-08T02:37:53;96446.00;;;9.80
14851;BMP180;7517;48.400;11.770;2023-04-08T02:40:26;96453.00;;;9.80
14851;BMP180;7517;48.400;11.770;2023-04-08T02:42:54;96451.00;;;9.80
14851;BMP180;7517;48.400;11.770;2023-04-08T02:45:27;96453.00;;;9.80
14851;BMP180;7517;48.400;11.770;2023-04-08T02:47:56;96461.00;;;9.80
14851;BMP180;7517;48.400;11.770;2023-04-08T02:50:23;96460.00;;;9.90
14851;BMP180;7517;48.400;11.770;2023-04-08T02:52:51;96466.00;;;9.90
14851;BMP180;7517;48.400;11.770;2023-04-08T02:55:18;96466.00;;;9.90
14851;BMP180;7517;48.400;11.770;2023-04-08T02:57:47;96466.00;;;9.90
14851;BMP180;7517;48.400;11.770;2023-04-08T03:00:16;96466.00;;;9.90
14851;BMP180;7517;48.400;11.770;2023-04-08T03:02:44;96459.00;;;9.90
14851;BMP180;7517;48.400;11.770;2023-04-08T03:05:14;96460.00;;;9.90
14851;BMP180;7517;48.400;11.770;2023-04-08T03:07:42;96463.00;;;9.90
14851;BMP180;7517;48.400;11.770;2023-04-08T03:10:10;96465.00;;;9.90
14851;BMP180;7517;48.400;11.770;2023-04-08T03:12:38;96468.00;;;9.90
14851;BMP180;7517;48.400;11.770;2023-04-08T03:15:06;96467.00;;;9.90
14851;BMP180;7517;48.400;11.770;2023-04-08T03:17:33;96472.00;;;9.90
14851;BMP180;7517;48.400;11.770;2023-04-08T03:20:03;96466.00;;;9.90
14851;BMP180;7517;48.400;11.770;2023-04-08T03:22:31;96471.00;;;9.90
14851;BMP180;7517;48.400;11.770;2023-04-08T03:25:00;96473.00;;;9.90
14851;BMP180;7517;48.400;11.770;2023-04-08T03:27:27;96469.00;;;9.90
14851;BMP180;7517;48.400;11.770;2023-04-08T03:29:55;96472.00;;;9.90
14851;BMP180;7517;48.400;11.770;2023-04-08T03:32:22;96469.00;;;9.90
14851;BMP180;7517;48.400;11.770;2023-04-08T03:34:50;96477.00;;;9.90
14851;BMP180;7517;48.400;11.770;2023-04-08T03:37:20;96469.00;;;9.90
14851;BMP180;7517;48.400;11.770;2023-04-08T03:39:47;96470.00;;;9.90
14851;BMP180;7517;48.400;11.770;2023-04-08T03:42:14;96466.00;;;9.90
14851;BMP180;7517;48.400;11.770;2023-04-08T03:44:42;96470.00;;;9.90
14851;BMP180;7517;48.400;11.770;2023-04-08T03:47:09;96477.00;;;9.90
14851;BMP180;7517;48.400;11.770;2023-04-08T03:49:36;96480.00;;;9.90
14851;BMP180;7517;48.400;11.770;2023-04-08T03:52:03;96480.00;;;9.90
14851;BMP180;7517;48.400;11.770;2023-04-08T03:54:32;96487.00;;;9.90
14851;BMP180;7517;48.400;11.770;2023-04-08T03:56:59;96493.00;;;9.90
14851;BMP180;7517;48.400;11.770;2023-04-08T03:59:27;96480.00;;;9.90
14851;BMP180;7517;48.400;11.770;2023-04-08T04:01:54;96486.00;;;9.90
14851;BMP180;7517;48.400;11.770;2023-04-08T04:04:22;96493.00;;;9.90
14851;BMP180;7517;48.400;11.770;2023-04-08T04:06:49;96496.00;;;9.90
14851;BMP180;7517;48.400;11.770;2023-04-08T04:09:16;96497.00;;;9.90
14851;BMP180;7517;48.400;11.770;2023-04-08T04:11:45;96490.00;;;9.90
14851;BMP180;7517;48.400;11.770;2023-04-08T04:14:12;96497.00;;;9.90
14851;BMP180;7517;48.400;11.770;2023-04-08T04:16:39;96494.00;;;9.90
14851;BMP180;7517;48.400;11.770;2023-04-08T04:19:07;96502.00;;;9.90
14851;BMP180;7517;48.400;11.770;2023-04-08T04:21:34;96491.00;;;9.90
14851;BMP180;7517;48.400;11.770;2023-04-08T04:24:01;96503.00;;;9.90
14851;BMP180;7517;48.400;11.770;2023-04-08T04:26:28;96506.00;;;9.90
14851;BMP180;7517;48.400;11.770;2023-04-08T04:28:57;96507.00;;;9.90
14851;BMP180;7517;48.400;11.770;2023-04-08T04:31:24;96506.00;;;9.90
14851;BMP180;7517;48.400;11.770;2023-04-08T04:33:53;96501.00;;;9.90
14851;BMP180;7517;48.400;11.770;2023-04-08T04:36:20;96498.00;;;9.90
14851;BMP180;7517;48.400;11.770;2023-04-08T04:38:49;96515.00;;;10.00
14851;BMP180;7517;48.400;11.770;2023-04-08T04:41:16;96512.00;;;10.00
14851;BMP180;7517;48.400;11.770;2023-04-08T04:43:46;96505.00;;;10.00
14851;BMP180;7517;48.400;11.770;2023-04-08T04:46:15;96500.00;;;10.00
14851;BMP180;7517;48.400;11.770;2023-04-08T04:48:42;96510.00;;;10.00
14851;BMP180;7517;48.400;11.770;2023-04-08T04:51:09;96504.00;;;10.00
14851;BMP180;7517;48.400;11.770;2023-04-08T04:53:37;96512.00;;;10.00
14851;BMP180;7517;48.400;11.770;2023-04-08T04:56:04;96510.00;;;10.00
14851;BMP180;7517;48.400;11.770;2023-04-08T04:58:32;96521.00;;;10.00
14851;BMP180;7517;48.400;11.770;2023-04-08T05:00:59;96521.00;;;10.10
14851;BMP180;7517;48.400;11.770;2023-04-08T05:03:29;96526.00;;;10.10
14851;BMP180;7517;48.400;11.770;2023-04-08T05:05:56;96526.00;;;10.10
14851;BMP180;7517;48.400;11.770;2023-04-08T05:08:24;96529.00;;;10.20
14851;BMP180;7517;48.400;11.770;2023-04-08T05:10:51;96534.00;;;10.20
14851;BMP180;7517;48.400;11.770;2023-04-08T05:13:21;96533.00;;;10.20
14851;BMP180;7517;48.400;11.770;2023-04-08T05:15:48;96542.00;;;10.20
14851;BMP180;7517;48.400;11.770;2023-04-08T05:18:15;96538.00;;;10.30
14851;BMP180;7517;48.400;11.770;2023-04-08T05:20:44;96540.00;;;10.30
14851;BMP180;7517;48.400;11.770;2023-04-08T05:23:12;96538.00;;;10.30
14851;BMP180;7517;48.400;11.770;2023-04-08T05:25:40;96536.00;;;10.30
14851;BMP180;7517;48.400;11.770;2023-04-08T05:28:07;96535.00;;;10.30
14851;BMP180;7517;48.400;11.770;2023-04-08T05:30:34;96545.00;;;10.30
14851;BMP180;7517;48.400;11.770;2023-04-08T05:33:01;96545.00;;;10.40
14851;BMP180;7517;48.400;11.770;2023-04-08T05:35:29;96544.00;;;10.40
14851;BMP180;7517;48.400;11.770;2023-04-08T05:37:58;96542.00;;;10.40
14851;BMP180;7517;48.400;11.770;2023-04-08T05:40:25;96538.00;;;10.40
14851;BMP180;7517;48.400;11.770;2023-04-08T05:42:52;96540.00;;;10.50
14851;BMP180;7517;48.400;11.770;2023-04-08T05:45:20;96550.00;;;10.50
14851;BMP180;7517;48.400;11.770;2023-04-08T05:47:48;96554.00;;;10.60
14851;BMP180;7517;48.400;11.770;2023-04-08T05:50:16;96551.00;;;10.70
14851;BMP180;7517;48.400;11.770;2023-04-08T05:52:44;96555.00;;;10.70
14851;BMP180;7517;48.400;11.770;2023-04-08T05:55:14;96556.00;;;10.80
14851;BMP180;7517;48.400;11.770;2023-04-08T05:57:42;96559.00;;;10.80
14851;BMP180;7517;48.400;11.770;2023-04-08T06:00:10;96565.00;;;10.90
14851;BMP180;7517;48.400;11.770;2023-04-08T06:02:37;96566.00;;;10.90
14851;BMP180;7517;48.400;11.770;2023-04-08T06:05:06;96565.00;;;11.00
14851;BMP180;7517;48.400;11.770;2023-04-08T06:07:33;96564.00;;;11.00
14851;BMP180;7517;48.400;11.770;2023-04-08T06:10:00;96565.00;;;11.10
14851;BMP180;7517;48.400;11.770;2023-04-08T06:12:29;96565.00;;;11.10
14851;BMP180;7517;48.400;11.770;2023-04-08T06:14:57;96576.00;;;11.10
14851;BMP180;7517;48.400;11.770;2023-04-08T06:17:25;96573.00;;;11.10
14851;BMP180;7517;48.400;11.770;2023-04-08T06:19:52;96578.00;;;11.20
14851;BMP180;7517;48.400;11.770;2023-04-08T06:22:19;96570.00;;;11.20
14851;BMP180;7517;48.400;11.770;2023-04-08T06:24:47;96583.00;;;11.30
14851;BMP180;7517;48.400;11.770;2023-04-08T06:27:14;96591.00;;;11.30
14851;BMP180;7517;48.400;11.770;2023-04-08T06:29:43;96586.00;;;11.30
14851;BMP180;7517;48.400;11.770;2023-04-08T06:32:12;96588.00;;;11.40
14851;BMP180;7517;48.400;11.770;2023-04-08T06:34:39;96595.00;;;11.50
14851;BMP180;7517;48.400;11.770;2023-04-08T06:37:07;96594.00;;;11.50
14851;BMP180;7517;48.400;11.770;2023-04-08T06:39:34;96592.00;;;11.50
14851;BMP180;7517;48.400;11.770;2023-04-08T06:42:03;96591.00;;;11.60
14851;BMP180;7517;48.400;11.770;2023-04-08T06:44:31;96596.00;;;11.60
14851;BMP180;7517;48.400;11.770;2023-04-08T06:47:00;96595.00;;;11.70
14851;BMP180;7517;48.400;11.770;2023-04-08T06:49:27;96598.00;;;11.70
14851;BMP180;7517;48.400;11.770;2023-04-08T06:51:55;96602.00;;;11.70
14851;BMP180;7517;48.400;11.770;2023-04-08T06:54:22;96607.00;;;11.80
14851;BMP180;7517;48.400;11.770;2023-04-08T06:56:49;96607.00;;;11.80
14851;BMP180;7517;48.400;11.770;2023-04-08T06:59:16;96604.00;;;11.90
14851;BMP180;7517;48.400;11.770;2023-04-08T07:01:43;96612.00;;;12.00
14851;BMP180;7517;48.400;11.770;2023-04-08T07:04:13;96610.00;;;12.00
14851;BMP180;7517;48.400;11.770;2023-04-08T07:06:40;96611.00;;;12.00
14851;BMP180;7517;48.400;11.770;2023-04-08T07:09:08;96620.00;;;12.00
14851;BMP180;7517;48.400;11.770;2023-04-08T07:11:35;96622.00;;;12.10
14851;BMP180;7517;48.400;11.770;2023-04-08T07:14:02;96618.00;;;12.10
14851;BMP180;7517;48.400;11.770;2023-04-08T07:16:29;96626.00;;;12.10
14851;BMP180;7517;48.400;11.770;2023-04-08T07:18:57;96620.00;;;12.20
14851;BMP180;7517;48.400;11.770;2023-04-08T07:21:25;96627.00;;;12.20
14851;BMP180;7517;48.400;11.770;2023-04-08T07:23:53;96623.00;;;12.30
14851;BMP180;7517;48.400;11.770;2023-04-08T07:26:20;96623.00;;;12.30
14851;BMP180;7517;48.400;11.770;2023-04-08T07:28:50;96620.00;;;12.30
14851;BMP180;7517;48.400;11.770;2023-04-08T07:31:18;96631.00;;;12.30
14851;BMP180;7517;48.400;11.770;2023-04-08T07:33:45;96639.00;;;12.30
14851;BMP180;7517;48.400;11.770;2023-04-08T07:36:14;96631.00;;;12.30
14851;BMP180;7517;48.400;11.770;2023-04-08T07:38:44;96642.00;;;12.30
14851;BMP180;7517;48.400;11.770;2023-04-08T07:41:13;96640.00;;;12.30
14851;BMP180;7517;48.400;11.770;2023-04-08T07:43:40;96643.00;;;12.30
14851;BMP180;7517;48.400;11.770;2023-04-08T07:46:07;96634.00;;;12.30
14851;BMP180;7517;48.400;11.770;2023-04-08T07:48:35;96638.00;;;12.30
14851;BMP180;7517;48.400;11.770;2023-04-08T07:51:04;96636.00;;;12.30
14851;BMP180;7517;48.400;11.770;2023-04-08T07:53:31;96646.00;;;12.40
14851;BMP180;7517;48.400;11.770;2023-04-08T07:56:01;96631.00;;;12.40
14851;BMP180;7517;48.400;11.770;2023-04-08T07:58:29;96638.00;;;12.40
14851;BMP180;7517;48.400;11.770;2023-04-08T08:00:57;96643.00;;;12.40
14851;BMP180;7517;48.400;11.770;2023-04-08T08:03:24;96642.00;;;12.40
14851;BMP180;7517;48.400;11.770;2023-04-08T08:05:52;96643.00;;;12.50
14851;BMP180;7517;48.400;11.770;2023-04-08T08:08:19;96646.00;;;12.50
14851;BMP180;7517;48.400;11.770;2023-04-08T08:10:46;96640.00;;;12.60
14851;BMP180;7517;48.400;11.770;2023-04-08T08:13:16;96655.00;;;12.60
14851;BMP180;7517;48.400;11.770;2023-04-08T08:15:51;96648.00;;;12.60
14851;BMP180;7517;48.400;11.770;2023-04-08T08:18:18;96646.00;;;12.60
14851;BMP180;7517;48.400;11.770;2023-04-08T08:20:45;96647.00;;;12.70
14851;BMP180;7517;48.400;11.770;2023-04-08T08:23:12;96644.00;;;12.70
14851;BMP180;7517;48.400;11.770;2023-04-08T08:25:41;96649.00;;;12.70
14851;BMP180;7517;48.400;11.770;2023-04-08T08:28:09;96648.00;;;12.60
14851;BMP180;7517;48.400;11.770;2023-04-08T08:30:39;96644.00;;;12.60
14851;BMP180;7517;48.400;11.770;2023-04-08T08:33:06;96652.00;;;12.60
14851;BMP180;7517;48.400;11.770;2023-04-08T08:35:34;96644.00;;;12.60
14851;BMP180;7517;48.400;11.770;2023-04-08T08:38:02;96655.00;;;12.60
14851;BMP180;7517;48.400;11.770;2023-04-08T08:40:29;96659.00;;;12.50
14851;BMP180;7517;48.400;11.770;2023-04-08T08:42:56;96658.00;;;12.50
14851;BMP180;7517;48.400;11.770;2023-04-08T08:45:26;96652.00;;;12.60
14851;BMP180;7517;48.400;11.770;2023-04-08T08:47:55;96647.00;;;12.60
14851;BMP180;7517;48.400;11.770;2023-04-08T08:50:22;96654.00;;;12.70
14851;BMP180;7517;48.400;11.770;2023-04-08T08:52:51;96660.00;;;12.70
14851;BMP180;7517;48.400;11.770;2023-04-08T08:55:19;96658.00;;;12.70
14851;BMP180;7517;48.400;11.770;2023-04-08T08:57:49;96656.00;;;12.70
14851;BMP180;7517;48.400;11.770;2023-04-08T09:00:17;96664.00;;;12.70
14851;BMP180;7517;48.400;11.770;2023-04-08T09:02:44;96668.00;;;12.70
14851;BMP180;7517;48.400;11.770;2023-04-08T09:05:13;96669.00;;;12.70
14851;BMP180;7517;48.400;11.770;2023-04-08T09:07:40;96669.00;;;12.70
14851;BMP180;7517;48.400;11.770;2023-04-08T09:10:08;96680.00;;;12.70
14851;BMP180;7517;48.400;11.770;2023-04-08T09:12:53;96673.00;;;12.70
14851;BMP180;7517;48.400;11.770;2023-04-08T09:15:21;96679.00;;;12.70
14851;BMP180;7517;48.400;11.770;2023-04-08T09:17:48;96681.00;;;12.60
14851;BMP180;7517;48.400;11.770;2023-04-08T09:20:18;96678.00;;;12.60
14851;BMP180;7517;48.400;11.770;2023-04-08T09:22:57;96680.00;;;12.60
14851;BMP180;7517;48.400;11.770;2023-04-08T09:25:26;96689.00;;;12.60
14851;BMP180;7517;48.400;11.770;2023-04-08T09:27:57;96690.00;;;12.60
14851;BMP180;7517;48.400;11.770;2023-04-08T09:30:26;96684.00;;;12.70
14851;BMP180;7517;48.400;11.770;2023-04-08T09:32:55;96690.00;;;12.70
14851;BMP180;7517;48.400;11.770;2023-04-08T09:35:24;96686.00;;;12.70
14851;BMP180;7517;48.400;11.770;2023-04-08T09:37:51;96695.00;;;12.70
14851;BMP180;7517;48.400;11.770;2023-04-08T09:40:19;96701.00;;;12.70
14851;BMP180;7517;48.400;11.770;2023-04-08T09:42:48;96698.00;;;12.70
14851;BMP180;7517;48.400;11.770;2023-04-08T09:45:17;96703.00;;;12.70
14851;BMP180;7517;48.400;11.770;2023-04-08T09:47:56;96705.00;;;12.70
14851;BMP180;7517;48.400;11.770;2023-04-08T09:50:30;96701.00;;;12.60
14851;BMP180;7517;48.400;11.770;2023-04-08T09:53:06;96704.00;;;12.60
14851;BMP180;7517;48.400;11.770;2023-04-08T09:55:36;96709.00;;;12.60
14851;BMP180;7517;48.400;11.770;2023-04-08T09:58:15;96712.00;;;12.50
14851;BMP180;7517;48.400;11.770;2023-04-08T10:00:46;96706.00;;;12.50
14851;BMP180;7517;48.400;11.770;2023-04-08T10:03:26;96714.00;;;12.40
14851;BMP180;7517;48.400;11.770;2023-04-08T10:06:00;96706.00;;;12.30
14851;BMP180;7517;48.400;11.770;2023-04-08T10:08:30;96708.00;;;12.30
14851;BMP180;7517;48.400;11.770;2023-04-08T10:11:00;96713.00;;;12.30
14851;BMP180;7517;48.400;11.770;2023-04-08T10:13:28;96716.00;;;12.30
14851;BMP180;7517;48.400;11.770;2023-04-08T10:16:19;96719.00;;;12.20
14851;BMP180;7517;48.400;11.770;2023-04-08T10:18:48;96707.00;;;12.10
14851;BMP180;7517;48.400;11.770;2023-04-08T10:21:49;96708.00;;;12.10
14851;BMP180;7517;48.400;11.770;2023-04-08T10:24:16;96711.00;;;12.00
14851;BMP180;7517;48.400;11.770;2023-04-08T10:26:48;96718.00;;;12.00
14851;BMP180;7517;48.400;11.770;2023-04-08T10:29:43;96718.00;;;11.90
14851;BMP180;7517;48.400;11.770;2023-04-08T10:32:28;96716.00;;;11.90
14851;BMP180;7517;48.400;11.770;2023-04-08T10:34:56;96715.00;;;11.90
14851;BMP180;7517;48.400;11.770;2023-04-08T10:37:25;96714.00;;;11.90
14851;BMP180;7517;48.400;11.770;2023-04-08T10:39:53;96717.00;;;11.90
14851;BMP180;7517;48.400;11.770;2023-04-08T10:42:27;96715.00;;;11.80
14851;BMP180;7517;48.400;11.770;2023-04-08T10:45:00;96714.00;;;11.80
14851;BMP180;7517;48.400;11.770;2023-04-08T10:47:28;96712.00;;;11.80
14851;BMP180;7517;48.400;11.770;2023-04-08T10:49:55;96715.00;;;11.80
14851;BMP180;7517;48.400;11.770;2023-04-08T10:52:25;96722.00;;;11.80
14851;BMP180;7517;48.400;11.770;2023-04-08T10:54:53;96723.00;;;11.70
14851;BMP180;7517;48.400;11.770;2023-04-08T10:57:24;96725.00;;;11.70
14851;BMP180;7517;48.400;11.770;2023-04-08T10:59:51;96722.00;;;11.70
14851;BMP180;7517;48.400;11.770;2023-04-08T11:02:19;96721.00;;;11.70
14851;BMP180;7517;48.400;11.770;2023-04-08T11:04:46;96713.00;;;11.70
14851;BMP180;7517;48.400;11.770;2023-04-08T11:07:14;96712.00;;;11.60
14851;BMP180;7517;48.400;11.770;2023-04-08T11:09:43;96725.00;;;11.60
14851;BMP180;7517;48.400;11.770;2023-04-08T11:12:14;96719.00;;;11.50
14851;BMP180;7517;48.400;11.770;2023-04-08T11:14:42;96727.00;;;11.50
14851;BMP180;7517;48.400;11.770;2023-04-08T11:17:10;96727.00;;;11.50
14851;BMP180;7517;48.400;11.770;2023-04-08T11:19:39;96725.00;;;11.50
14851;BMP180;7517;48.400;11.770;2023-04-08T11:22:07;96723.00;;;11.50
14851;BMP180;7517;48.400;11.770;2023-04-08T11:24:36;96732.00;;;11.50
14851;BMP180;7517;48.400;11.770;2023-04-08T11:27:06;96732.00;;;11.50
14851;BMP180;7517;48.400;11.770;2023-04-08T11:29:33;96734.00;;;11.50
14851;BMP180;7517;48.400;11.770;2023-04-08T11:32:01;96734.00;;;11.50
14851;BMP180;7517;48.400;11.770;2023-04-08T11:34:29;96729.00;;;11.50
14851;BMP180;7517;48.400;11.770;2023-04-08T11:36:56;96735.00;;;11.50
14851;BMP180;7517;48.400;11.770;2023-04-08T11:39:24;96736.00;;;11.50
14851;BMP180;7517;48.400;11.770;2023-04-08T11:41:51;96726.00;;;11.50
14851;BMP180;7517;48.400;11.770;2023-04-08T11:44:29;96725.00;;;11.50
14851;BMP180;7517;48.400;11.770;2023-04-08T11:46:58;96731.00;;;11.50
14851;BMP180;7517;48.400;11.770;2023-04-08T11:49:27;96729.00;;;11.50
14851;BMP180;7517;48.400;11.770;2023-04-08T11:52:09;96732.00;;;11.40
14851;BMP180;7517;48.400;11.770;2023-04-08T11:54:41;96731.00;;;11.40
14851;BMP180;7517;48.400;11.770;2023-04-08T11:57:08;96727.00;;;11.50
14851;BMP180;7517;48.400;11.770;2023-04-08T11:59:37;96730.00;;;11.50
14851;BMP180;7517;48.400;11.770;2023-04-08T12:02:05;96735.00;;;11.50
14851;BMP180;7517;48.400;11.770;2023-04-08T12:04:32;96725.00;;;11.50
14851;BMP180;7517;48.400;11.770;2023-04-08T12:07:00;96728.00;;;11.50
14851;BMP180;7517;48.400;11.770;2023-04-08T12:09:27;96745.00;;;11.50
14851;BMP180;7517;48.400;11.770;2023-04-08T12:11:54;96727.00;;;11.50
14851;BMP180;7517;48.400;11.770;2023-04-08T12:14:23;96740.00;;;11.50
14851;BMP180;7517;48.400;11.770;2023-04-08T12:16:52;96740.00;;;11.50
14851;BMP180;7517;48.400;11.770;2023-04-08T12:19:19;96739.00;;;11.50
14851;BMP180;7517;48.400;11.770;2023-04-08T12:21:47;96741.00;;;11.50
14851;BMP180;7517;48.400;11.770;2023-04-08T12:24:14;96747.00;;;11.40
14851;BMP180;7517;48.400;11.770;2023-04-08T12:26:41;96740.00;;;11.40
14851;BMP180;7517;48.400;11.770;2023-04-08T12:29:09;96744.00;;;11.30
14851;BMP180;7517;48.400;11.770;2023-04-08T12:31:37;96740.00;;;11.30
14851;BMP180;7517;48.400;11.770;2023-04-08T12:34:06;96736.00;;;11.30
14851;BMP180;7517;48.400;11.770;2023-04-08T12:36:33;96752.00;;;11.30
14851;BMP180;7517;48.400;11.770;2023-04-08T12:39:02;96746.00;;;11.30
14851;BMP180;7517;48.400;11.770;2023-04-08T12:41:29;96745.00;;;11.40
14851;BMP180;7517;48.400;11.770;2023-04-08T12:43:57;96753.00;;;11.50
14851;BMP180;7517;48.400;11.770;2023-04-08T12:46:24;96748.00;;;11.50
14851;BMP180;7517;48.400;11.770;2023-04-08T12:48:51;96742.00;;;11.60
14851;BMP180;7517;48.400;11.770;2023-04-08T12:51:20;96733.00;;;11.60
14851;BMP180;7517;48.400;11.770;2023-04-08T12:53:47;96739.00;;;11.70
14851;BMP180;7517;48.400;11.770;2023-04-08T12:56:14;96754.00;;;11.70
14851;BMP180;7517;48.400;11.770;2023-04-08T12:58:41;96746.00;;;11.80
14851;BMP180;7517;48.400;11.770;2023-04-08T13:01:09;96745.00;;;11.90
14851;BMP180;7517;48.400;11.770;2023-04-08T13:03:37;96752.00;;;12.00
14851;BMP180;7517;48.400;11.770;2023-04-08T13:06:05;96736.00;;;12.00
14851;BMP180;7517;48.400;11.770;2023-04-08T13:08:37;96749.00;;;12.00
14851;BMP180;7517;48.400;11.770;2023-04-08T13:11:04;96735.00;;;12.10
14851;BMP180;7517;48.400;11.770;2023-04-08T13:13:31;96733.00;;;12.20
14851;BMP180;7517;48.400;11.770;2023-04-08T13:15:59;96740.00;;;12.20
14851;BMP180;7517;48.400;11.770;2023-04-08T13:18:27;96736.00;;;12.40
14851;BMP180;7517;48.400;11.770;2023-04-08T13:20:54;96734.00;;;12.50
14851;BMP180;7517;48.400;11.770;2023-04-08T13:23:23;96741.00;;;12.70
14851;BMP180;7517;48.400;11.770;2023-04-08T13:25:52;96732.00;;;12.80
14851;BMP180;7517;48.400;11.770;2023-04-08T13:28:19;96740.00;;;12.90
14851;BMP180;7517;48.400;11.770;2023-04-08T13:30:47;96744.00;;;12.90
14851;BMP180;7517;48.400;11.770;2023-04-08T13:33:15;96745.00;;;12.90
14851;BMP180;7517;48.400;11.770;2023-04-08T13:35:42;96749.00;;;12.90
14851;BMP180;7517;48.400;11.770;2023-04-08T13:38:09;96753.00;;;12.90
14851;BMP180;7517;48.400;11.770;2023-04-08T13:40:37;96748.00;;;12.80
14851;BMP180;7517;48.400;11.770;2023-04-08T13:43:06;96745.00;;;12.70
14851;BMP180;7517;48.400;11.770;2023-04-08T13:45:34;96745.00;;;12.70
14851;BMP180;7517;48.400;11.770;2023-04-08T13:48:02;96752.00;;;12.60
14851;BMP180;7517;48.400;11.770;2023-04-08T13:50:29;96755.00;;;12.50
14851;BMP180;7517;48.400;11.770;2023-04-08T13:52:57;96748.00;;;12.40
14851;BMP180;7517;48.400;11.770;2023-04-08T13:55:24;96754.00;;;12.40
14851;BMP180;7517;48.400;11.770;2023-04-08T13:57:52;96751.00;;;12.30
14851;BMP180;7517;48.400;11.770;2023-04-08T14:00:20;96753.00;;;12.30
14851;BMP180;7517;48.400;11.770;2023-04-08T14:02:47;96756.00;;;12.40
14851;BMP180;7517;48.400;11.770;2023-04-08T14:05:16;96761.00;;;12.40
14851;BMP180;7517;48.400;11.770;2023-04-08T14:07:43;96751.00;;;12.40
14851;BMP180;7517;48.400;11.770;2023-04-08T14:10:10;96757.00;;;12.40
14851;BMP180;7517;48.400;11.770;2023-04-08T14:12:39;96755.00;;;12.40
14851;BMP180;7517;48.400;11.770;2023-04-08T14:15:08;96754.00;;;12.40
14851;BMP180;7517;48.400;11.770;2023-04-08T14:17:40;96747.00;;;12.40
14851;BMP180;7517;48.400;11.770;2023-04-08T14:20:08;96761.00;;;12.40
14851;BMP180;7517;48.400;11.770;2023-04-08T14:22:36;96755.00;;;12.40
14851;BMP180;7517;48.400;11.770;2023-04-08T14:25:04;96759.00;;;12.50